Levittown, PR

8:24 AM AST on September 18, 2014 (GMT -0400)
Mercedita | Change Station
CLOSE
Current Station
Airport
Location: Ponce,
Elevation: 30 ft
Nearby Weather Stations

Elev 30 ft 18.01 °N, 66.56 °W | Updated 34 minutes ago

Partly Cloudy
Partly Cloudy
84 °F
Feels Like 90 °F
N
0
Wind Variable Wind from North

Today
High -- | Low -- °F
--% Chance of Precip.
Yesterday
High -- | Low -- °F
Precip. -- in
6:12 AM 6:24 PM
Waning Crescent, 27% visible
Pressure 29.93 in
Visibility 10.0 miles
Clouds Few 3000 ft
Heat Index 90 °F
Dew Point 72 °F
Humidity 66%
Rainfall 0.00 in
Snow Depth Not available.
UV 2 out of 12
Pollen Not available.
Air Quality Not available.
Flu Activity Not available.
METAR TJPS 181150Z 00000KT 10SM FEW030 29/22 A2993

More Conditions Fewer Conditions

Pressure 29.93 in
Visibility 10.0 miles
Clouds Few 3000 ft
Heat Index 90 °F
Dew Point 72 °F
Humidity 66%
Rainfall 0.00 in
Snow Depth Not available.
UV 2 out of 12
Pollen Not available.
Air Quality Not available.
Flu Activity Not available.
METAR TJPS 181150Z 00000KT 10SM FEW030 29/22 A2993

More Conditions Fewer Conditions

10-Day Weather Forecast

Almanac

Astronomy

Sep. 18, 2014 Rise Set
Actual Time 6:12 AM AST 6:24 PM AST
Civil Twilight 5:51 AM AST 6:46 PM AST
Nautical Twilight 5:25 AM AST 7:11 PM AST
Astronomical Twilight 5:00 AM AST 7:37 PM AST
Moon 1:34 AM AST 2:42 PM AST
Length of Visible Light 12h 55m
Length of Day
12h 11m
Tomorrow will be 1m 3s shorter.
Waning Crescent, 27% of the Moon is Illuminated
Today
Waning Crescent
Sep 24
New
Oct 1
First Quarter
Oct 8
Full
Oct 15
Last Quarter

Community

WunderPhotos

Upload Photos

1,754,333 photos uploaded!

Nearby

Snow Depth

Station Depth Elevation
No new snow has been reported.

Earthquake Activity

City Distance Mag. Time & Date
No recent earthquake activity has been reported nearby.
Minimum magnitude displayed is 2.5.

Coastal Water Temperatures

Place Temperature
San Juan, PR 84.9 °F
Mayaguez, PR 84.9 °F
Esperanza, PR 84.9 °F

Nearby Weather Stations